sensor_id;sensor_type;location;lat;lon;timestamp;P1;durP1;ratioP1;P2;durP2;ratioP2
15192;SDS011;7697;51.630;7.484;2023-07-31T00:02:06;4.07;;;1.95;;
15192;SDS011;7697;51.630;7.484;2023-07-31T00:07:07;2.20;;;1.33;;
15192;SDS011;7697;51.630;7.484;2023-07-31T00:12:10;2.33;;;1.70;;
15192;SDS011;7697;51.630;7.484;2023-07-31T00:17:12;1.40;;;1.30;;
15192;SDS011;7697;51.630;7.484;2023-07-31T00:22:14;3.38;;;1.75;;
15192;SDS011;7697;51.630;7.484;2023-07-31T00:27:17;1.60;;;1.50;;
15192;SDS011;7697;51.630;7.484;2023-07-31T00:32:19;1.67;;;1.40;;
15192;SDS011;7697;51.630;7.484;2023-07-31T00:37:20;1.40;;;1.30;;
15192;SDS011;7697;51.630;7.484;2023-07-31T00:42:24;1.33;;;1.20;;
15192;SDS011;7697;51.630;7.484;2023-07-31T00:47:26;2.10;;;1.40;;
15192;SDS011;7697;51.630;7.484;2023-07-31T00:52:28;1.50;;;1.40;;
15192;SDS011;7697;51.630;7.484;2023-07-31T00:57:32;1.90;;;1.70;;
15192;SDS011;7697;51.630;7.484;2023-07-31T01:02:34;2.15;;;1.85;;
15192;SDS011;7697;51.630;7.484;2023-07-31T01:07:39;3.53;;;2.63;;
15192;SDS011;7697;51.630;7.484;2023-07-31T01:13:02;4.35;;;3.42;;
15192;SDS011;7697;51.630;7.484;2023-07-31T01:18:05;7.80;;;5.00;;
15192;SDS011;7697;51.630;7.484;2023-07-31T01:28:56;7.90;;;5.72;;
15192;SDS011;7697;51.630;7.484;2023-07-31T01:34:03;8.77;;;5.57;;
15192;SDS011;7697;51.630;7.484;2023-07-31T01:39:07;11.00;;;6.60;;
15192;SDS011;7697;51.630;7.484;2023-07-31T01:44:10;11.25;;;7.22;;
15192;SDS011;7697;51.630;7.484;2023-07-31T01:49:12;10.40;;;6.40;;
15192;SDS011;7697;51.630;7.484;2023-07-31T01:54:15;10.85;;;6.43;;
15192;SDS011;7697;51.630;7.484;2023-07-31T01:59:18;12.00;;;6.28;;
15192;SDS011;7697;51.630;7.484;2023-07-31T02:04:20;8.82;;;5.70;;
15192;SDS011;7697;51.630;7.484;2023-07-31T02:09:23;12.02;;;6.38;;
15192;SDS011;7697;51.630;7.484;2023-07-31T02:14:26;14.68;;;5.45;;
15192;SDS011;7697;51.630;7.484;2023-07-31T02:19:28;11.85;;;4.70;;
15192;SDS011;7697;51.630;7.484;2023-07-31T02:24:31;7.95;;;5.05;;
15192;SDS011;7697;51.630;7.484;2023-07-31T02:29:34;9.80;;;5.18;;
15192;SDS011;7697;51.630;7.484;2023-07-31T02:34:37;10.40;;;5.68;;
15192;SDS011;7697;51.630;7.484;2023-07-31T02:39:39;7.28;;;4.40;;
15192;SDS011;7697;51.630;7.484;2023-07-31T02:44:44;7.55;;;4.82;;
15192;SDS011;7697;51.630;7.484;2023-07-31T02:49:46;6.15;;;4.20;;
15192;SDS011;7697;51.630;7.484;2023-07-31T02:54:48;8.35;;;4.93;;
15192;SDS011;7697;51.630;7.484;2023-07-31T02:59:51;8.05;;;4.88;;
15192;SDS011;7697;51.630;7.484;2023-07-31T03:04:53;10.80;;;5.20;;
15192;SDS011;7697;51.630;7.484;2023-07-31T03:09:55;7.07;;;4.30;;
15192;SDS011;7697;51.630;7.484;2023-07-31T03:14:59;8.07;;;4.97;;
15192;SDS011;7697;51.630;7.484;2023-07-31T03:20:01;13.65;;;4.78;;
15192;SDS011;7697;51.630;7.484;2023-07-31T03:25:05;14.85;;;5.13;;
15192;SDS011;7697;51.630;7.484;2023-07-31T03:30:11;8.57;;;4.57;;
15192;SDS011;7697;51.630;7.484;2023-07-31T03:35:13;7.70;;;4.32;;
15192;SDS011;7697;51.630;7.484;2023-07-31T03:40:15;7.38;;;4.50;;
15192;SDS011;7697;51.630;7.484;2023-07-31T03:45:19;6.85;;;4.53;;
15192;SDS011;7697;51.630;7.484;2023-07-31T03:50:22;9.00;;;5.05;;
15192;SDS011;7697;51.630;7.484;2023-07-31T03:55:25;7.07;;;4.40;;
15192;SDS011;7697;51.630;7.484;2023-07-31T04:00:29;11.95;;;5.80;;
15192;SDS011;7697;51.630;7.484;2023-07-31T04:05:31;11.77;;;5.30;;
15192;SDS011;7697;51.630;7.484;2023-07-31T04:10:33;8.93;;;5.18;;
15192;SDS011;7697;51.630;7.484;2023-07-31T04:15:37;8.95;;;5.10;;
15192;SDS011;7697;51.630;7.484;2023-07-31T04:20:39;10.38;;;5.07;;
15192;SDS011;7697;51.630;7.484;2023-07-31T04:25:42;9.68;;;4.95;;
15192;SDS011;7697;51.630;7.484;2023-07-31T04:30:45;8.13;;;4.63;;
15192;SDS011;7697;51.630;7.484;2023-07-31T04:35:49;9.98;;;5.25;;
15192;SDS011;7697;51.630;7.484;2023-07-31T04:40:53;10.40;;;5.53;;
15192;SDS011;7697;51.630;7.484;2023-07-31T04:45:56;6.97;;;4.85;;
15192;SDS011;7697;51.630;7.484;2023-07-31T04:50:58;9.77;;;5.50;;
15192;SDS011;7697;51.630;7.484;2023-07-31T04:56:01;9.23;;;5.20;;
15192;SDS011;7697;51.630;7.484;2023-07-31T05:01:04;8.45;;;5.05;;
15192;SDS011;7697;51.630;7.484;2023-07-31T05:06:06;7.50;;;4.72;;
15192;SDS011;7697;51.630;7.484;2023-07-31T05:11:08;9.35;;;4.97;;
15192;SDS011;7697;51.630;7.484;2023-07-31T05:16:11;7.10;;;4.97;;
15192;SDS011;7697;51.630;7.484;2023-07-31T05:21:14;8.35;;;4.88;;
15192;SDS011;7697;51.630;7.484;2023-07-31T05:26:15;7.30;;;4.38;;
15192;SDS011;7697;51.630;7.484;2023-07-31T05:31:19;6.97;;;4.07;;
15192;SDS011;7697;51.630;7.484;2023-07-31T05:36:22;8.00;;;4.35;;
15192;SDS011;7697;51.630;7.484;2023-07-31T05:41:24;6.80;;;4.35;;
15192;SDS011;7697;51.630;7.484;2023-07-31T05:46:27;9.60;;;4.95;;
15192;SDS011;7697;51.630;7.484;2023-07-31T05:51:29;5.55;;;3.85;;
15192;SDS011;7697;51.630;7.484;2023-07-31T05:56:31;8.05;;;4.30;;
15192;SDS011;7697;51.630;7.484;2023-07-31T06:01:35;9.20;;;4.93;;
15192;SDS011;7697;51.630;7.484;2023-07-31T06:06:37;6.65;;;4.55;;
15192;SDS011;7697;51.630;7.484;2023-07-31T06:11:39;6.78;;;4.18;;
15192;SDS011;7697;51.630;7.484;2023-07-31T06:16:43;5.63;;;3.97;;
15192;SDS011;7697;51.630;7.484;2023-07-31T06:21:45;6.53;;;3.50;;
15192;SDS011;7697;51.630;7.484;2023-07-31T06:26:47;9.07;;;5.30;;
15192;SDS011;7697;51.630;7.484;2023-07-31T06:31:50;6.68;;;4.80;;
15192;SDS011;7697;51.630;7.484;2023-07-31T06:36:52;8.70;;;4.55;;
15192;SDS011;7697;51.630;7.484;2023-07-31T06:41:54;6.00;;;4.00;;
15192;SDS011;7697;51.630;7.484;2023-07-31T06:46:58;5.55;;;4.05;;
15192;SDS011;7697;51.630;7.484;2023-07-31T06:52:00;7.05;;;4.68;;
15192;SDS011;7697;51.630;7.484;2023-07-31T06:57:02;6.38;;;4.60;;
15192;SDS011;7697;51.630;7.484;2023-07-31T07:02:06;6.82;;;4.28;;
15192;SDS011;7697;51.630;7.484;2023-07-31T07:07:08;7.63;;;4.82;;
15192;SDS011;7697;51.630;7.484;2023-07-31T07:12:10;7.18;;;4.20;;
15192;SDS011;7697;51.630;7.484;2023-07-31T07:17:13;8.82;;;5.45;;
15192;SDS011;7697;51.630;7.484;2023-07-31T07:22:15;9.05;;;6.00;;
15192;SDS011;7697;51.630;7.484;2023-07-31T07:27:17;5.80;;;5.00;;
15192;SDS011;7697;51.630;7.484;2023-07-31T07:32:20;7.38;;;5.00;;
15192;SDS011;7697;51.630;7.484;2023-07-31T07:37:22;10.40;;;4.97;;
15192;SDS011;7697;51.630;7.484;2023-07-31T07:42:24;6.20;;;4.38;;
15192;SDS011;7697;51.630;7.484;2023-07-31T07:47:27;6.68;;;4.63;;
15192;SDS011;7697;51.630;7.484;2023-07-31T07:52:29;8.07;;;4.47;;
15192;SDS011;7697;51.630;7.484;2023-07-31T07:57:31;5.53;;;4.18;;
15192;SDS011;7697;51.630;7.484;2023-07-31T08:02:35;5.13;;;3.50;;
15192;SDS011;7697;51.630;7.484;2023-07-31T08:07:39;4.28;;;3.50;;
15192;SDS011;7697;51.630;7.484;2023-07-31T08:12:41;6.30;;;3.63;;
15192;SDS011;7697;51.630;7.484;2023-07-31T08:17:44;6.25;;;3.65;;
15192;SDS011;7697;51.630;7.484;2023-07-31T08:22:46;5.75;;;4.00;;
15192;SDS011;7697;51.630;7.484;2023-07-31T08:27:48;8.82;;;4.93;;
15192;SDS011;7697;51.630;7.484;2023-07-31T08:32:54;5.57;;;3.53;;
15192;SDS011;7697;51.630;7.484;2023-07-31T08:37:56;5.93;;;3.53;;
15192;SDS011;7697;51.630;7.484;2023-07-31T08:42:58;5.38;;;3.47;;
15192;SDS011;7697;51.630;7.484;2023-07-31T08:48:04;4.78;;;2.97;;
15192;SDS011;7697;51.630;7.484;2023-07-31T08:53:06;4.35;;;2.95;;
15192;SDS011;7697;51.630;7.484;2023-07-31T08:58:08;3.83;;;2.78;;
15192;SDS011;7697;51.630;7.484;2023-07-31T09:03:14;3.20;;;2.67;;
15192;SDS011;7697;51.630;7.484;2023-07-31T09:08:17;2.92;;;2.40;;
15192;SDS011;7697;51.630;7.484;2023-07-31T09:13:21;4.43;;;2.72;;
15192;SDS011;7697;51.630;7.484;2023-07-31T09:18:24;3.63;;;2.70;;
15192;SDS011;7697;51.630;7.484;2023-07-31T09:23:26;6.82;;;4.30;;
15192;SDS011;7697;51.630;7.484;2023-07-31T09:28:42;3.03;;;2.28;;
15192;SDS011;7697;51.630;7.484;2023-07-31T09:33:55;4.20;;;2.53;;
15192;SDS011;7697;51.630;7.484;2023-07-31T10:09:45;4.18;;;3.10;;
15192;SDS011;7697;51.630;7.484;2023-07-31T10:14:48;3.42;;;2.30;;
15192;SDS011;7697;51.630;7.484;2023-07-31T10:19:49;3.53;;;2.30;;
15192;SDS011;7697;51.630;7.484;2023-07-31T10:24:56;4.50;;;3.13;;
15192;SDS011;7697;51.630;7.484;2023-07-31T10:29:59;3.75;;;2.47;;
15192;SDS011;7697;51.630;7.484;2023-07-31T10:35:05;10.98;;;3.78;;
15192;SDS011;7697;51.630;7.484;2023-07-31T10:40:11;5.43;;;3.33;;
15192;SDS011;7697;51.630;7.484;2023-07-31T10:45:23;3.30;;;2.60;;
15192;SDS011;7697;51.630;7.484;2023-07-31T10:50:27;2.60;;;2.10;;
15192;SDS011;7697;51.630;7.484;2023-07-31T10:55:32;3.67;;;2.60;;
15192;SDS011;7697;51.630;7.484;2023-07-31T11:00:36;3.08;;;2.25;;
15192;SDS011;7697;51.630;7.484;2023-07-31T11:05:46;2.65;;;2.03;;
15192;SDS011;7697;51.630;7.484;2023-07-31T11:10:51;3.67;;;2.90;;
15192;SDS011;7697;51.630;7.484;2023-07-31T11:16:06;2.25;;;2.03;;
15192;SDS011;7697;51.630;7.484;2023-07-31T11:21:08;2.55;;;1.98;;
15192;SDS011;7697;51.630;7.484;2023-07-31T11:26:14;3.03;;;2.05;;
15192;SDS011;7697;51.630;7.484;2023-07-31T11:31:16;2.88;;;2.10;;
15192;SDS011;7697;51.630;7.484;2023-07-31T11:36:19;3.10;;;2.65;;
15192;SDS011;7697;51.630;7.484;2023-07-31T11:41:23;3.30;;;3.00;;
15192;SDS011;7697;51.630;7.484;2023-07-31T11:46:25;5.03;;;3.42;;
15192;SDS011;7697;51.630;7.484;2023-07-31T11:51:27;5.85;;;3.72;;
15192;SDS011;7697;51.630;7.484;2023-07-31T11:56:32;5.75;;;3.58;;
15192;SDS011;7697;51.630;7.484;2023-07-31T12:01:34;3.60;;;2.65;;
15192;SDS011;7697;51.630;7.484;2023-07-31T12:06:36;4.38;;;3.58;;
15192;SDS011;7697;51.630;7.484;2023-07-31T12:11:46;4.35;;;3.38;;
15192;SDS011;7697;51.630;7.484;2023-07-31T12:17:10;4.22;;;3.08;;
15192;SDS011;7697;51.630;7.484;2023-07-31T12:22:31;5.32;;;3.20;;
15192;SDS011;7697;51.630;7.484;2023-07-31T12:27:34;4.00;;;3.60;;
15192;SDS011;7697;51.630;7.484;2023-07-31T12:32:36;4.35;;;3.58;;
15192;SDS011;7697;51.630;7.484;2023-07-31T12:37:38;4.07;;;3.00;;
15192;SDS011;7697;51.630;7.484;2023-07-31T12:42:42;4.15;;;2.90;;
15192;SDS011;7697;51.630;7.484;2023-07-31T12:47:43;5.53;;;3.15;;
15192;SDS011;7697;51.630;7.484;2023-07-31T12:52:45;6.20;;;3.33;;
15192;SDS011;7697;51.630;7.484;2023-07-31T12:57:48;3.85;;;2.75;;
15192;SDS011;7697;51.630;7.484;2023-07-31T13:02:50;5.07;;;3.58;;
15192;SDS011;7697;51.630;7.484;2023-07-31T13:07:52;5.20;;;2.70;;
15192;SDS011;7697;51.630;7.484;2023-07-31T13:12:55;5.68;;;3.50;;
15192;SDS011;7697;51.630;7.484;2023-07-31T13:17:57;4.55;;;3.28;;
15192;SDS011;7697;51.630;7.484;2023-07-31T13:22:59;4.30;;;2.72;;
15192;SDS011;7697;51.630;7.484;2023-07-31T13:28:03;3.42;;;2.85;;
15192;SDS011;7697;51.630;7.484;2023-07-31T13:33:05;4.07;;;3.13;;
15192;SDS011;7697;51.630;7.484;2023-07-31T13:38:07;4.15;;;3.00;;
15192;SDS011;7697;51.630;7.484;2023-07-31T13:43:10;3.10;;;2.70;;
15192;SDS011;7697;51.630;7.484;2023-07-31T13:48:12;5.97;;;2.55;;
15192;SDS011;7697;51.630;7.484;2023-07-31T13:53:14;3.28;;;2.05;;
15192;SDS011;7697;51.630;7.484;2023-07-31T13:58:17;3.63;;;2.50;;
15192;SDS011;7697;51.630;7.484;2023-07-31T14:03:19;3.03;;;2.70;;
15192;SDS011;7697;51.630;7.484;2023-07-31T14:08:20;2.47;;;2.25;;
15192;SDS011;7697;51.630;7.484;2023-07-31T14:13:23;5.32;;;2.85;;
15192;SDS011;7697;51.630;7.484;2023-07-31T14:18:25;3.20;;;2.60;;
15192;SDS011;7697;51.630;7.484;2023-07-31T14:23:27;4.25;;;2.80;;
15192;SDS011;7697;51.630;7.484;2023-07-31T14:28:30;2.85;;;2.55;;
15192;SDS011;7697;51.630;7.484;2023-07-31T14:33:32;5.55;;;2.88;;
15192;SDS011;7697;51.630;7.484;2023-07-31T14:38:34;3.20;;;2.80;;
15192;SDS011;7697;51.630;7.484;2023-07-31T14:43:37;3.90;;;2.97;;
15192;SDS011;7697;51.630;7.484;2023-07-31T14:48:39;4.85;;;3.35;;
15192;SDS011;7697;51.630;7.484;2023-07-31T14:53:41;5.15;;;3.30;;
15192;SDS011;7697;51.630;7.484;2023-07-31T14:58:44;5.80;;;3.78;;
15192;SDS011;7697;51.630;7.484;2023-07-31T15:03:46;4.32;;;3.60;;
15192;SDS011;7697;51.630;7.484;2023-07-31T15:08:48;3.58;;;3.28;;
15192;SDS011;7697;51.630;7.484;2023-07-31T15:13:51;4.93;;;3.25;;
15192;SDS011;7697;51.630;7.484;2023-07-31T15:18:52;6.50;;;3.55;;
15192;SDS011;7697;51.630;7.484;2023-07-31T15:23:54;4.43;;;3.50;;
15192;SDS011;7697;51.630;7.484;2023-07-31T15:29:00;3.72;;;3.17;;
15192;SDS011;7697;51.630;7.484;2023-07-31T15:34:05;4.70;;;3.50;;
15192;SDS011;7697;51.630;7.484;2023-07-31T15:39:07;3.88;;;3.22;;
15192;SDS011;7697;51.630;7.484;2023-07-31T15:44:10;5.10;;;3.20;;
15192;SDS011;7697;51.630;7.484;2023-07-31T15:49:12;4.85;;;3.58;;
15192;SDS011;7697;51.630;7.484;2023-07-31T15:54:14;4.70;;;3.28;;
15192;SDS011;7697;51.630;7.484;2023-07-31T16:04:38;6.22;;;3.88;;
15192;SDS011;7697;51.630;7.484;2023-07-31T16:09:42;5.32;;;3.80;;
15192;SDS011;7697;51.630;7.484;2023-07-31T16:14:46;4.88;;;3.92;;
15192;SDS011;7697;51.630;7.484;2023-07-31T16:19:48;7.10;;;3.85;;
15192;SDS011;7697;51.630;7.484;2023-07-31T16:24:50;4.30;;;3.70;;
15192;SDS011;7697;51.630;7.484;2023-07-31T16:29:53;4.65;;;4.13;;
15192;SDS011;7697;51.630;7.484;2023-07-31T16:34:56;4.68;;;4.00;;
15192;SDS011;7697;51.630;7.484;2023-07-31T16:39:58;4.30;;;3.67;;
15192;SDS011;7697;51.630;7.484;2023-07-31T16:45:01;4.40;;;3.60;;
15192;SDS011;7697;51.630;7.484;2023-07-31T16:50:04;4.45;;;3.85;;
15192;SDS011;7697;51.630;7.484;2023-07-31T16:55:11;6.85;;;3.72;;
15192;SDS011;7697;51.630;7.484;2023-07-31T17:00:14;4.72;;;3.63;;
15192;SDS011;7697;51.630;7.484;2023-07-31T17:05:17;4.22;;;3.67;;
15192;SDS011;7697;51.630;7.484;2023-07-31T17:10:19;4.13;;;3.65;;
15192;SDS011;7697;51.630;7.484;2023-07-31T17:15:22;6.50;;;4.30;;
15192;SDS011;7697;51.630;7.484;2023-07-31T17:20:24;5.85;;;3.80;;
15192;SDS011;7697;51.630;7.484;2023-07-31T17:25:25;4.68;;;4.05;;
15192;SDS011;7697;51.630;7.484;2023-07-31T17:30:28;4.55;;;4.15;;
15192;SDS011;7697;51.630;7.484;2023-07-31T17:35:30;5.55;;;4.70;;
15192;SDS011;7697;51.630;7.484;2023-07-31T17:40:32;4.82;;;4.30;;
15192;SDS011;7697;51.630;7.484;2023-07-31T17:45:35;5.00;;;3.97;;
15192;SDS011;7697;51.630;7.484;2023-07-31T17:50:37;4.53;;;4.10;;
15192;SDS011;7697;51.630;7.484;2023-07-31T17:55:39;4.75;;;3.70;;
15192;SDS011;7697;51.630;7.484;2023-07-31T18:00:43;5.35;;;3.92;;
15192;SDS011;7697;51.630;7.484;2023-07-31T18:05:45;4.30;;;3.45;;
15192;SDS011;7697;51.630;7.484;2023-07-31T18:10:46;3.92;;;3.53;;
15192;SDS011;7697;51.630;7.484;2023-07-31T18:15:50;3.67;;;3.25;;
15192;SDS011;7697;51.630;7.484;2023-07-31T18:20:51;4.90;;;3.53;;
15192;SDS011;7697;51.630;7.484;2023-07-31T18:25:53;4.18;;;3.60;;
15192;SDS011;7697;51.630;7.484;2023-07-31T18:30:58;4.65;;;2.65;;
15192;SDS011;7697;51.630;7.484;2023-07-31T18:36:01;3.50;;;2.90;;
15192;SDS011;7697;51.630;7.484;2023-07-31T18:41:05;3.67;;;2.72;;
15192;SDS011;7697;51.630;7.484;2023-07-31T18:46:08;3.08;;;2.75;;
15192;SDS011;7697;51.630;7.484;2023-07-31T18:51:10;2.60;;;2.40;;
15192;SDS011;7697;51.630;7.484;2023-07-31T18:56:12;3.60;;;2.75;;
15192;SDS011;7697;51.630;7.484;2023-07-31T19:01:16;4.25;;;2.55;;
15192;SDS011;7697;51.630;7.484;2023-07-31T19:06:17;3.20;;;2.88;;
15192;SDS011;7697;51.630;7.484;2023-07-31T19:11:19;2.63;;;2.33;;
15192;SDS011;7697;51.630;7.484;2023-07-31T19:16:23;4.22;;;2.40;;
15192;SDS011;7697;51.630;7.484;2023-07-31T19:21:24;2.83;;;2.25;;
15192;SDS011;7697;51.630;7.484;2023-07-31T19:26:26;3.15;;;2.08;;
15192;SDS011;7697;51.630;7.484;2023-07-31T19:31:30;2.00;;;1.80;;
15192;SDS011;7697;51.630;7.484;2023-07-31T19:36:32;2.20;;;2.00;;
15192;SDS011;7697;51.630;7.484;2023-07-31T19:41:33;2.35;;;1.90;;
15192;SDS011;7697;51.630;7.484;2023-07-31T19:46:40;2.05;;;1.73;;
15192;SDS011;7697;51.630;7.484;2023-07-31T19:51:42;2.40;;;1.92;;
15192;SDS011;7697;51.630;7.484;2023-07-31T19:56:43;2.10;;;1.90;;
15192;SDS011;7697;51.630;7.484;2023-07-31T20:01:47;2.88;;;1.80;;
15192;SDS011;7697;51.630;7.484;2023-07-31T20:06:49;2.30;;;2.03;;
15192;SDS011;7697;51.630;7.484;2023-07-31T20:11:51;3.40;;;2.70;;
15192;SDS011;7697;51.630;7.484;2023-07-31T20:16:54;4.63;;;2.70;;
15192;SDS011;7697;51.630;7.484;2023-07-31T20:21:56;3.35;;;2.08;;
15192;SDS011;7697;51.630;7.484;2023-07-31T20:26:58;5.25;;;2.90;;
15192;SDS011;7697;51.630;7.484;2023-07-31T20:32:01;4.45;;;3.05;;
15192;SDS011;7697;51.630;7.484;2023-07-31T20:37:03;2.65;;;2.10;;
15192;SDS011;7697;51.630;7.484;2023-07-31T20:42:05;2.20;;;1.95;;
15192;SDS011;7697;51.630;7.484;2023-07-31T20:47:12;2.70;;;1.90;;
15192;SDS011;7697;51.630;7.484;2023-07-31T20:52:15;2.78;;;1.80;;
15192;SDS011;7697;51.630;7.484;2023-07-31T20:57:16;2.03;;;1.83;;
15192;SDS011;7697;51.630;7.484;2023-07-31T21:02:20;3.38;;;1.70;;
15192;SDS011;7697;51.630;7.484;2023-07-31T21:07:21;2.28;;;1.90;;
15192;SDS011;7697;51.630;7.484;2023-07-31T21:12:23;1.70;;;1.60;;
15192;SDS011;7697;51.630;7.484;2023-07-31T21:17:27;2.05;;;1.80;;
15192;SDS011;7697;51.630;7.484;2023-07-31T21:22:29;1.88;;;1.65;;
15192;SDS011;7697;51.630;7.484;2023-07-31T21:27:31;1.83;;;1.40;;
15192;SDS011;7697;51.630;7.484;2023-07-31T21:32:34;2.47;;;1.58;;
15192;SDS011;7697;51.630;7.484;2023-07-31T21:37:35;3.13;;;1.70;;
15192;SDS011;7697;51.630;7.484;2023-07-31T21:42:37;2.60;;;2.20;;
15192;SDS011;7697;51.630;7.484;2023-07-31T21:47:40;3.15;;;2.20;;
15192;SDS011;7697;51.630;7.484;2023-07-31T21:52:42;2.35;;;2.10;;
15192;SDS011;7697;51.630;7.484;2023-07-31T21:57:44;3.50;;;2.90;;
15192;SDS011;7697;51.630;7.484;2023-07-31T22:02:47;5.65;;;2.88;;
15192;SDS011;7697;51.630;7.484;2023-07-31T22:07:49;5.13;;;2.60;;
15192;SDS011;7697;51.630;7.484;2023-07-31T22:12:50;2.38;;;2.05;;
15192;SDS011;7697;51.630;7.484;2023-07-31T22:17:53;1.88;;;1.50;;
15192;SDS011;7697;51.630;7.484;2023-07-31T22:22:55;2.50;;;1.48;;
15192;SDS011;7697;51.630;7.484;2023-07-31T22:27:57;3.05;;;1.63;;
15192;SDS011;7697;51.630;7.484;2023-07-31T22:33:00;1.95;;;1.50;;
15192;SDS011;7697;51.630;7.484;2023-07-31T22:38:02;1.30;;;1.20;;
15192;SDS011;7697;51.630;7.484;2023-07-31T22:43:04;1.65;;;1.33;;
15192;SDS011;7697;51.630;7.484;2023-07-31T22:48:07;1.33;;;1.23;;
15192;SDS011;7697;51.630;7.484;2023-07-31T22:53:09;1.65;;;1.30;;
15192;SDS011;7697;51.630;7.484;2023-07-31T22:58:11;1.20;;;1.10;;
15192;SDS011;7697;51.630;7.484;2023-07-31T23:03:14;1.42;;;1.33;;
15192;SDS011;7697;51.630;7.484;2023-07-31T23:08:15;1.38;;;1.10;;
15192;SDS011;7697;51.630;7.484;2023-07-31T23:13:17;1.42;;;1.33;;
15192;SDS011;7697;51.630;7.484;2023-07-31T23:18:21;1.50;;;1.23;;
15192;SDS011;7697;51.630;7.484;2023-07-31T23:23:23;1.40;;;1.30;;
15192;SDS011;7697;51.630;7.484;2023-07-31T23:28:24;2.17;;;1.23;;
15192;SDS011;7697;51.630;7.484;2023-07-31T23:33:28;1.60;;;1.30;;
15192;SDS011;7697;51.630;7.484;2023-07-31T23:38:30;1.52;;;1.20;;
15192;SDS011;7697;51.630;7.484;2023-07-31T23:43:32;1.73;;;1.23;;
15192;SDS011;7697;51.630;7.484;2023-07-31T23:48:35;1.40;;;1.30;;
15192;SDS011;7697;51.630;7.484;2023-07-31T23:53:37;1.65;;;1.40;;
15192;SDS011;7697;51.630;7.484;2023-07-31T23:58:38;1.10;;;1.00;;
